• Join FlightAware (Why Join?)
  • Login
  • US Flag 
09:17AM EDT


 

Airport Tracker/Info


-or-


 

Live Flight TrackerFlight Track Log ✈ N432WH ✈ 29-Jun-2014 ✈ KPIE - 2I0

Flight Track Log - Related Links

Times and Time Zones

All times are in EDT time to prevent confusion due to time zone crossing. See the N432WH flight status page for this flight to view local times or setup timezone preferences in your user account.

Time Position Orientation Groundspeed Altitude Reporting Facility
EDT Latitude Longitude Course Direction KTS MPH feet Rate Location/Type
07:40PM 34.4906 -85.7706 336° Northwest 163 188 12,500  Level Memphis Center
07:41PM 34.5289 -85.7911 336° Northwest 155 178 12,600  Climbing Atlanta Center
07:43PM 34.6108 -85.8458 331° Northwest 161 185 12,500 -60 Descending Memphis Center
07:44PM 34.6556 -85.8731 333° Northwest 162 186 12,500  Level Memphis Center
07:45PM 34.6908 -85.8933 335° Northwest 155 178 12,600  Climbing Memphis Center
07:46PM 34.7292 -85.9156 335° Northwest 152 175 12,600 -60 Level Memphis Center
07:47PM 34.7692 -85.9378 335° Northwest 152 175 12,500 -60 Descending Memphis Center
07:48PM 34.8181 -85.9642 336° Northwest 155 178 12,500  Level Memphis Center
07:49PM 34.8583 -85.9872 335° Northwest 156 180 12,500  Level Memphis Center
07:50PM 34.8978 -86.0094 335° Northwest 156 180 12,500  Level Memphis Center
07:51PM 34.9378 -86.0306 337° Northwest 156 180 12,500 -60 Level Memphis Center
07:52PM 34.9778 -86.0531 335° Northwest 156 180 12,400  Descending Memphis Center
07:53PM 35.0156 -86.0747 335° Northwest 156 180 12,500  Climbing Memphis Center
07:54PM 35.0558 -86.0950 338° Northwest 156 180 12,500  Level Memphis Center
07:55PM 35.1069 -86.1233 336° Northwest 158 182 12,500  Level Memphis Center
07:56PM 35.1481 -86.1450 337° Northwest 159 183 12,500  Level Memphis Center
07:58PM 35.1892 -86.1692 334° Northwest 160 184 12,500  Level Memphis Center
07:59PM 35.2300 -86.1933 334° Northwest 161 185 12,600 60 Climbing Memphis Center
08:00PM 35.2719 -86.2183 334° Northwest 161 185 12,700  Climbing Memphis Center
08:01PM 35.3158 -86.2381 340° North 164 189 12,700  Level Memphis Center
08:02PM 35.3575 -86.2600 337° Northwest 163 188 12,800  Climbing Memphis Center
08:03PM 35.3997 -86.2819 337° Northwest 163 188 12,800  Level Memphis Center
08:04PM 35.4428 -86.3025 339° North 163 188 12,900 300 Climbing Memphis Center
08:05PM 35.4900 -86.3256 338° Northwest 161 185 13,500 300 Climbing Memphis Center
08:06PM 35.5283 -86.3433 339° North 151 174 13,600  Climbing Memphis Center
08:07PM 35.5711 -86.3653 337° Northwest 158 182 13,600 -60 Level Memphis Center
08:08PM 35.6139 -86.3911 334° Northwest 165 190 13,500 -120 Descending Memphis Center
08:09PM 35.6581 -86.4153 336° Northwest 168 193 13,400  Descending Memphis Center
08:10PM 35.7008 -86.4397 335° Northwest 168 193 13,500 60 Climbing Memphis Center
08:11PM 35.7428 -86.4658 333° Northwest 168 193 13,600  Climbing Memphis Center
08:12PM 35.7869 -86.4892 337° Northwest 168 193 13,500 -60 Descending Memphis Center
08:13PM 35.8311 -86.5131 336° Northwest 169 194 13,500  Level Memphis Center
08:14PM 35.8778 -86.5475 329° Northwest 169 194 13,600  Climbing Memphis Center
08:15PM 35.9222 -86.5667 341° North 168 193 13,600 -60 Level Memphis Center
08:16PM 35.9672 -86.5886 338° Northwest 169 194 13,500  Descending Memphis Center
08:17PM 36.0119 -86.6094 339° North 170 196 13,600  Climbing Memphis Center
08:18PM 36.0567 -86.6289 341° North 170 196 13,600  Level Memphis Center
08:19PM 36.1011 -86.6481 341° North 169 194 13,600 -60 Level Memphis Center
08:20PM 36.1433 -86.6731 334° Northwest 169 194 13,500  Descending Memphis Center
08:21PM 36.1856 -86.6981 334° Northwest 169 194 13,600  Climbing Memphis Center
08:22PM 36.2289 -86.7214 337° Northwest 168 193 13,600 -120 Level Memphis Center
08:23PM 36.2792 -86.7511 335° Northwest 169 194 13,400 -300 Descending Memphis Center
08:24PM 36.3233 -86.7781 334° Northwest 172 198 13,000 -540 Descending Memphis Center
08:25PM 36.3686 -86.8033 336° Northwest 177 204 12,300 -720 Descending Memphis Center
08:26PM 36.3903 -86.8172 333° Northwest 174 200 12,000 -660 Descending Memphis Center
08:26PM 36.4089 -86.8278 335° Northwest 168 193 11,700 -780 Descending Memphis Center
08:27PM 36.4525 -86.8542 334° Northwest 163 188 10,900 -720 Descending Memphis Center
08:28PM 36.4919 -86.8778 334° Northwest 162 186 10,300 -660 Descending Memphis Center
08:29PM 36.5333 -86.9042 333° Northwest 163 188 9,600 -660 Descending Memphis Center
08:30PM 36.5747 -86.9256 337° Northwest 163 188 9,000 -600 Descending Memphis Center
08:30PM 36.5819 -86.9289 340° North 164 189 8,900 -600 Descending Memphis Center
08:31PM 36.6164 -86.9494 334° Northwest 160 184 8,400 -720 Descending Memphis Center
08:31PM 36.6225 -86.9522 340° North 163 188 8,200 -720 Descending Memphis Center
08:32PM 36.6558 -86.9708 336° Northwest 159 183 7,700 -720 Descending Memphis Center
08:33PM 36.6972 -86.9947 335° Northwest 162 186 6,900 -780 Descending Memphis Center
08:33PM 36.7044 -86.9997 331° Northwest 162 186 6,800 -720 Descending Memphis Center
08:34PM 36.7367 -87.0161 338° Northwest 162 186 6,200 -720 Descending Memphis Center
08:35PM 36.7461 -87.0197 343° North 162 186 6,100 -840 Descending Memphis Center
08:35PM 36.7803 -87.0322 344° North 152 175 5,400 -780 Descending Memphis Center
08:36PM 36.7869 -87.0364 333° Northwest 157 181 5,300 -600 Descending Memphis Center
08:36PM 36.8175 -87.0589 329° Northwest 150 173 4,800 -600 Descending Memphis Center
08:37PM 36.8242 -87.0608 347° North 154 177 4,700 -780 Descending Memphis Center
08:38PM 36.8600 -87.0867 330° Northwest 153 176 3,800 -780 Descending Memphis Center
08:38PM 36.8922 -87.1067 334° Northwest 148 170 3,400 -540 Descending Memphis Center
08:39PM 36.8972 -87.1106 328° Northwest 152 175 3,300 -240 Descending Memphis Center
08:39PM 36.9275 -87.1308 332° Northwest 148 170 3,200 -240 Descending Memphis Center
08:40PM 36.9339 -87.1347 334° Northwest 151 174 3,100 -120 Descending Memphis Center
08:40PM 36.9647 -87.1522 336° Northwest 147 169 3,100  Level Memphis Center
08:41PM 36.9764 -87.1606 330° Northwest 150 173 3,100  Level Memphis Center
08:41PM 37.0019 -87.1764 334° Northwest 142 163 3,100  Level Memphis Center
08:42PM 37.0128 -87.1828 335° Northwest 146 168 3,100  Level Memphis Center
08:42PM 37.0372 -87.1978 334° Northwest 144 166 3,100  Level Memphis Center
08:43PM 37.0492 -87.2047 335° Northwest 146 168 3,100  Level Memphis Center
08:43PM 37.0767 -87.2142 345° North 147 169 3,100  Level Memphis Center
08:44PM 37.0875 -87.2203 336° Northwest 146 168 3,100 60 Level Memphis Center
08:44PM 37.1097 -87.2356 331° Northwest 142 163 3,200  Climbing Memphis Center
08:45PM 37.1231 -87.2425 337° Northwest 145 167 3,100  Descending Memphis Center
08:45PM 37.1469 -87.2597 330° Northwest 142 163 3,200  Climbing Memphis Center
08:46PM 37.1575 -87.2683 327° Northwest 144 166 3,100 -120 Descending Memphis Center
08:47PM 37.1947 -87.2917 333° Northwest 144 166 3,100 -180 Level Memphis Center
08:48PM 37.2289 -87.3164 330° Northwest 144 166 2,800 -600 Descending Memphis Center
08:49PM 37.2653 -87.3425 330° Northwest 145 167 1,900 -900 Descending Memphis Center
08:51PM 37.3318 -87.3773 345° North  Level FlightAware Approximate
08:58PM 37.3500 -87.3833 345° North  Level FlightAware Approximate
08:59PM 37.3559 -87.3982 270° West  Level Estimated
09:00PM 37.3559 -87.3982 345° North  Level Estimated
09:01PM 37.3559 -87.3982 117° Southeast  Level Estimated
09:02PM 37.3559 -87.3982 345° North  Level Estimated